Time;durP1;ratioP1;P1;durP2;ratioP2;P2;SDS_P1;SDS_P2;PMS_P1;PMS_P2;Temp;Humidity;BMP_temperature;BMP_pressure;BME280_temperature;BME280_humidity;BME280_pressure;Samples;Min_cycle;Max_cycle;Signal;HPM_P1;HPM_P2
2022/05/16 00:00:54;;;;;;;;;;;;;;;23.43;44.26;99688.72;2078618;28;19924;-39
2022/05/16 00:01:54;;;;;;;;;;;;;;;23.42;44.37;99681.53;2083603;28;19956;-39
2022/05/16 00:02:55;;;;;;;;;;;;;;;23.42;44.32;99687.03;2083608;28;19958;-39
2022/05/16 00:03:55;;;;;;;;;;;;;;;23.43;44.49;99693.38;2083905;28;19920;-39
2022/05/16 00:04:56;;;;;;;;;;;;;;;23.42;44.48;99687.03;2080644;28;19920;-39
2022/05/16 00:05:56;;;;;;;;;;;;;;;23.42;44.45;99684.28;2076906;28;19920;-39
2022/05/16 00:06:56;;;;;;;;;;;;;;;23.42;44.45;99697.16;2086056;28;19916;-39
2022/05/16 00:07:57;;;;;;;;;;;;;;;23.42;44.46;99692.53;2082923;28;19973;-39
2022/05/16 00:08:57;;;;;;;;;;;;;;;23.42;44.46;99694.41;2083313;28;19920;-39
2022/05/16 00:09:58;;;;;;;;;;;;;;;23.42;44.47;99694.41;2084237;28;20342;-39
2022/05/16 00:10:58;;;;;;;;;;;;;;;23.42;44.55;99692.53;2082945;28;19969;-39
2022/05/16 00:11:59;;;;;;;;;;;;;;;23.40;44.64;99694.63;2078260;28;19917;-39
2022/05/16 00:13:00;;;;;;;;;;;;;;;23.40;44.65;99689.09;2078656;28;20211;-39
2022/05/16 00:14:01;;;;;;;;;;;;;;;23.40;44.69;99686.34;2077349;28;19932;-39
2022/05/16 00:15:02;;;;;;;;;;;;;;;23.39;44.65;99692.88;2080902;28;19916;-39
2022/05/16 00:16:02;;;;;;;;;;;;;;;23.39;44.74;99692.88;2080944;28;20003;-39
2022/05/16 00:17:03;;;;;;;;;;;;;;;23.40;44.69;99688.25;2084531;28;20079;-39
2022/05/16 00:18:05;;;;;;;;;;;;;;;23.39;44.79;99695.63;2083008;28;19912;-39
2022/05/16 00:19:05;;;;;;;;;;;;;;;23.38;44.77;99688.44;2083114;28;20046;-39
2022/05/16 00:20:06;;;;;;;;;;;;;;;23.39;44.74;99681.88;2083839;28;19923;-39
2022/05/16 00:21:07;;;;;;;;;;;;;;;23.40;44.77;99686.34;2083341;28;19911;-39
2022/05/16 00:22:08;;;;;;;;;;;;;;;23.39;44.93;99684.63;2077818;28;20241;-39
2022/05/16 00:23:08;;;;;;;;;;;;;;;23.39;44.89;99698.38;2076962;28;20008;-39
2022/05/16 00:24:08;;;;;;;;;;;;;;;23.39;44.96;99703.88;2079823;28;19916;-39
2022/05/16 00:25:10;;;;;;;;;;;;;;;23.40;44.91;99705.63;2079131;28;19999;-39
2022/05/16 00:26:10;;;;;;;;;;;;;;;23.39;44.96;99701.13;2081422;28;20689;-39
2022/05/16 00:27:11;;;;;;;;;;;;;;;23.39;45.07;99700.28;2081005;28;20518;-39
2022/05/16 00:28:11;;;;;;;;;;;;;;;23.39;45.04;99703.88;2082429;28;19967;-39
2022/05/16 00:29:12;;;;;;;;;;;;;;;23.39;45.13;99701.13;2083516;28;19921;-39
2022/05/16 00:30:14;;;;;;;;;;;;;;;23.38;45.06;99698.59;2080921;28;19917;-39
2022/05/16 00:31:14;;;;;;;;;;;;;;;23.39;45.05;99703.88;2081002;28;19923;-39
2022/05/16 00:32:16;;;;;;;;;;;;;;;23.38;45.17;99704.94;2080504;28;19932;-39
2022/05/16 00:33:16;;;;;;;;;;;;;;;23.39;45.24;99706.63;2081453;28;19955;-39
2022/05/16 00:34:17;;;;;;;;;;;;;;;23.38;45.31;99702.19;2083055;28;19970;-39
2022/05/16 00:35:19;;;;;;;;;;;;;;;23.39;45.32;99714.03;2081144;28;19924;-39
2022/05/16 00:36:20;;;;;;;;;;;;;;;23.39;45.35;99714.88;2084082;28;19921;-39
2022/05/16 00:37:20;;;;;;;;;;;;;;;23.38;45.33;99715.94;2079796;28;19966;-39
2022/05/16 00:38:20;;;;;;;;;;;;;;;23.38;45.33;99717.84;2079022;28;19920;-39
2022/05/16 00:39:21;;;;;;;;;;;;;;;23.38;45.34;99724.19;2077793;28;19925;-39
2022/05/16 00:40:21;;;;;;;;;;;;;;;23.38;45.33;99715.94;2078073;28;19920;-39
2022/05/16 00:41:22;;;;;;;;;;;;;;;23.38;45.33;99720.59;2082896;28;19952;-39
2022/05/16 00:42:22;;;;;;;;;;;;;;;23.38;45.42;99732.44;2083505;28;19939;-39
2022/05/16 00:43:40;;;;;;;;;;;;;;;23.38;45.35;99731.59;2084778;28;20733;-39
2022/05/16 00:44:40;;;;;;;;;;;;;;;23.38;45.46;99739.84;2081384;28;20538;-38
2022/05/16 00:45:43;;;;;;;;;;;;;;;23.37;45.50;99744.50;2083412;28;20113;-40
2022/05/16 00:46:44;;;;;;;;;;;;;;;23.37;45.54;99752.75;2085330;28;19970;-38
2022/05/16 00:47:45;;;;;;;;;;;;;;;23.36;45.48;99759.28;2085773;28;19930;-38
2022/05/16 00:48:46;;;;;;;;;;;;;;;23.37;45.47;99749.13;2086050;28;19913;-39
2022/05/16 00:49:47;;;;;;;;;;;;;;;23.37;45.55;99763.75;2084404;28;19913;-39
2022/05/16 00:50:48;;;;;;;;;;;;;;;23.36;45.60;99764.78;2084534;28;19998;-38
2022/05/16 00:52:00;;;;;;;;;;;;;;;23.37;45.67;99766.50;2084383;28;19917;-39
2022/05/16 00:53:00;;;;;;;;;;;;;;;23.37;45.49;99768.38;2083049;28;19927;-39
2022/05/16 00:54:12;;;;;;;;;;;;;;;23.36;45.78;99764.78;2085327;28;19913;-38
2022/05/16 00:55:13;;;;;;;;;;;;;;;23.36;45.66;99758.44;2079009;28;19916;-38
2022/05/16 00:56:14;;;;;;;;;;;;;;;23.35;45.71;99754.81;2081783;28;19971;-38
2022/05/16 00:57:17;;;;;;;;;;;;;;;23.35;45.74;99754.81;2086526;28;19916;-38
2022/05/16 00:58:19;;;;;;;;;;;;;;;23.33;45.79;99755.00;2084889;28;19995;-39
2022/05/16 00:59:22;;;;;;;;;;;;;;;23.33;45.75;99748.66;2084753;28;20491;-38
2022/05/16 01:00:24;;;;;;;;;;;;;;;23.33;45.81;99754.16;2085322;28;19917;-38
2022/05/16 01:05:32;;;;;;;;;;;;;;;23.33;45.92;99759.66;2085541;28;20569;-38
2022/05/16 01:06:36;;;;;;;;;;;;;;;23.33;45.97;99762.41;2084092;28;20582;-38
2022/05/16 01:07:39;;;;;;;;;;;;;;;23.33;45.93;99770.66;2084980;28;19962;-39
2022/05/16 01:08:43;;;;;;;;;;;;;;;23.33;45.88;99776.16;2085174;28;19920;-38
2022/05/16 01:09:44;;;;;;;;;;;;;;;23.33;45.92;99776.16;2080373;28;20406;-38
2022/05/16 01:10:45;;;;;;;;;;;;;;;23.33;45.98;99776.16;2078466;28;19935;-38
2022/05/16 01:11:45;;;;;;;;;;;;;;;23.33;45.97;99781.66;2084270;28;19917;-38
2022/05/16 01:12:46;;;;;;;;;;;;;;;23.33;45.85;99776.16;2081693;28;19913;-39
2022/05/16 01:13:47;;;;;;;;;;;;;;;23.33;45.94;99774.25;2085876;28;19917;-39
2022/05/16 01:14:52;;;;;;;;;;;;;;;23.32;45.96;99768.94;2080421;28;19974;-40
2022/05/16 01:15:53;;;;;;;;;;;;;;;23.33;46.05;99765.16;2084923;28;19965;-39
2022/05/16 01:16:53;;;;;;;;;;;;;;;23.33;45.83;99765.16;2081811;28;19955;-40
2022/05/16 01:17:54;;;;;;;;;;;;;;;23.32;45.93;99763.44;2078242;28;20441;-39
2022/05/16 01:18:55;;;;;;;;;;;;;;;23.32;45.92;99763.44;2083934;28;20458;-40
2022/05/16 01:19:55;;;;;;;;;;;;;;;23.32;45.94;99763.44;2082437;28;19915;-39
2022/05/16 01:21:01;;;;;;;;;;;;;;;23.32;45.91;99768.94;2082075;28;19913;-39
2022/05/16 01:22:06;;;;;;;;;;;;;;;23.32;45.80;99764.31;2079482;28;20367;-39
2022/05/16 01:23:06;;;;;;;;;;;;;;;23.32;45.94;99757.94;2081806;28;19912;-39
2022/05/16 01:24:13;;;;;;;;;;;;;;;23.32;45.98;99760.69;2084812;28;20289;-39
2022/05/16 01:25:13;;;;;;;;;;;;;;;23.31;45.78;99756.22;2086699;28;19908;-39
2022/05/16 01:26:16;;;;;;;;;;;;;;;23.31;45.99;99761.72;2082350;28;20027;-39
2022/05/16 01:27:17;;;;;;;;;;;;;;;23.31;45.89;99754.31;2085091;28;19999;-39
2022/05/16 01:28:23;;;;;;;;;;;;;;;23.32;46.02;99755.19;2084302;28;19935;-39
2022/05/16 01:29:23;;;;;;;;;;;;;;;23.30;45.96;99754.53;2082118;28;19974;-39
2022/05/16 01:30:31;;;;;;;;;;;;;;;23.31;45.94;99756.22;2084663;28;19924;-39
2022/05/16 01:31:32;;;;;;;;;;;;;;;23.30;46.06;99754.53;2084723;28;19923;-39
2022/05/16 01:32:33;;;;;;;;;;;;;;;23.29;45.98;99753.66;2087991;28;19923;-39
2022/05/16 01:33:34;;;;;;;;;;;;;;;23.30;46.13;99754.53;2077105;28;20234;-39
2022/05/16 01:34:35;;;;;;;;;;;;;;;23.31;45.98;99756.22;2081486;28;20039;-39
2022/05/16 01:35:36;;;;;;;;;;;;;;;23.31;46.01;99761.72;2085153;28;19994;-39
2022/05/16 01:36:37;;;;;;;;;;;;;;;23.30;46.14;99754.53;2082638;28;19947;-39
2022/05/16 01:39:04;;;;;;;;;;;;;;;23.29;46.14;99747.31;2067967;28;20271;-39
2022/05/16 01:40:04;;;;;;;;;;;;;;;23.29;46.26;99750.06;2078915;28;20104;-39
2022/05/16 01:41:07;;;;;;;;;;;;;;;23.27;46.25;99747.50;2083062;28;19924;-39
2022/05/16 01:42:08;;;;;;;;;;;;;;;23.28;46.18;99745.63;2084670;28;20355;-39
2022/05/16 01:43:09;;;;;;;;;;;;;;;23.28;46.23;99745.63;2082819;28;20446;-39
2022/05/16 01:44:09;;;;;;;;;;;;;;;23.27;46.23;99744.75;2085621;28;19916;-39
2022/05/16 01:45:09;;;;;;;;;;;;;;;23.27;46.32;99747.50;2082539;28;19912;-39
2022/05/16 01:46:11;;;;;;;;;;;;;;;23.28;46.35;99745.63;2078463;28;19924;-39
2022/05/16 01:47:11;;;;;;;;;;;;;;;23.29;46.33;99752.81;2082318;28;19916;-39
2022/05/16 01:48:13;;;;;;;;;;;;;;;23.28;46.38;99756.59;2079243;28;20275;-39
2022/05/16 01:49:13;;;;;;;;;;;;;;;23.28;46.37;99756.59;2085150;28;20286;-39
2022/05/16 01:50:14;;;;;;;;;;;;;;;23.29;46.32;99752.81;2084820;28;19908;-39
2022/05/16 01:51:15;;;;;;;;;;;;;;;23.28;46.26;99751.09;2084407;28;20126;-39
2022/05/16 01:52:15;;;;;;;;;;;;;;;23.28;46.47;99751.09;2082944;28;19940;-39
2022/05/16 01:53:16;;;;;;;;;;;;;;;23.27;46.31;99755.75;2079780;28;20349;-39
2022/05/16 01:54:17;;;;;;;;;;;;;;;23.28;46.42;99762.09;2082199;28;19912;-39
2022/05/16 01:55:17;;;;;;;;;;;;;;;23.27;46.46;99761.25;2081333;28;19909;-39
2022/05/16 01:56:17;;;;;;;;;;;;;;;23.28;46.34;99764.84;2080476;28;19952;-39
2022/05/16 01:57:18;;;;;;;;;;;;;;;23.27;46.48;99763.13;2084924;28;19923;-39
2022/05/16 01:58:18;;;;;;;;;;;;;;;23.27;46.41;99754.88;2082304;28;19916;-40
2022/05/16 01:59:19;;;;;;;;;;;;;;;23.28;46.33;99756.59;2078557;28;20417;-39
2022/05/16 02:00:19;;;;;;;;;;;;;;;23.26;46.44;99755.94;2079884;28;20481;-39
2022/05/16 02:01:21;;;;;;;;;;;;;;;23.25;46.50;99755.09;2080971;28;20108;-39
2022/05/16 02:02:21;;;;;;;;;;;;;;;23.25;46.58;99754.22;2084508;28;19920;-39
2022/05/16 02:03:22;;;;;;;;;;;;;;;23.25;46.58;99756.97;2078131;28;19920;-39
2022/05/16 02:04:22;;;;;;;;;;;;;;;23.25;46.62;99756.97;2078183;28;20661;-39
2022/05/16 02:05:23;;;;;;;;;;;;;;;23.25;46.52;99759.72;2085811;28;20235;-39
2022/05/16 02:06:23;;;;;;;;;;;;;;;23.25;46.49;99762.47;2082139;28;19928;-39
2022/05/16 02:07:23;;;;;;;;;;;;;;;23.25;46.56;99759.72;2078428;28;19956;-39
2022/05/16 02:08:24;;;;;;;;;;;;;;;23.25;46.57;99762.47;2081881;28;19981;-39
2022/05/16 02:09:24;;;;;;;;;;;;;;;23.25;46.58;99762.47;2082122;28;20270;-40
2022/05/16 02:10:25;;;;;;;;;;;;;;;23.24;46.51;99758.84;2085472;28;20165;-39
2022/05/16 02:11:26;;;;;;;;;;;;;;;23.24;46.56;99764.34;2086405;28;19974;-39
2022/05/16 02:12:26;;;;;;;;;;;;;;;23.24;46.52;99761.59;2085359;28;19962;-39
2022/05/16 02:13:26;;;;;;;;;;;;;;;23.24;46.55;99760.75;2083053;28;20258;-39
2022/05/16 02:14:27;;;;;;;;;;;;;;;23.24;46.45;99763.50;2084942;28;19967;-39
2022/05/16 02:15:28;;;;;;;;;;;;;;;23.24;46.56;99761.59;2081626;28;20281;-39
2022/05/16 02:16:29;;;;;;;;;;;;;;;23.25;46.54;99765.22;2082054;28;19975;-39
2022/05/16 02:17:29;;;;;;;;;;;;;;;23.24;46.45;99752.50;2083388;28;19917;-39
2022/05/16 02:18:30;;;;;;;;;;;;;;;23.24;46.63;99760.75;2084737;28;20297;-39
2022/05/16 02:19:30;;;;;;;;;;;;;;;23.24;46.50;99758.00;2084663;28;19944;-39
2022/05/16 02:20:31;;;;;;;;;;;;;;;23.24;46.48;99755.25;2085207;28;19915;-39
2022/05/16 02:25:28;;;;;;;;;;;;;;;23.23;46.58;99768.16;2084709;28;19917;-39
2022/05/16 02:26:28;;;;;;;;;;;;;;;23.23;46.70;99770.06;2080482;28;19916;-39
2022/05/16 02:27:29;;;;;;;;;;;;;;;23.23;46.63;99770.06;2082646;28;19970;-39
2022/05/16 02:28:29;;;;;;;;;;;;;;;23.22;46.65;99762.84;2078068;28;19919;-39
2022/05/16 02:29:29;;;;;;;;;;;;;;;23.23;46.70;99772.81;2083690;28;19981;-39
2022/05/16 02:30:29;;;;;;;;;;;;;;;23.23;46.76;99770.06;2082646;28;20404;-39
2022/05/16 02:31:30;;;;;;;;;;;;;;;23.21;46.60;99774.88;2078865;28;20284;-39
2022/05/16 02:32:30;;;;;;;;;;;;;;;23.21;46.75;99773.00;2079996;28;20282;-39
2022/05/16 02:33:30;;;;;;;;;;;;;;;23.21;46.62;99783.13;2079803;28;19947;-39
2022/05/16 02:34:31;;;;;;;;;;;;;;;23.20;46.67;99779.53;2080094;28;19915;-39
2022/05/16 02:35:31;;;;;;;;;;;;;;;23.20;46.75;99775.91;2081179;28;19951;-39
2022/05/16 02:36:31;;;;;;;;;;;;;;;23.20;46.69;99781.41;2077646;28;19925;-39
2022/05/16 02:37:32;;;;;;;;;;;;;;;23.20;46.77;99775.91;2085424;28;20362;-39
2022/05/16 02:38:32;;;;;;;;;;;;;;;23.20;46.63;99764.91;2083301;28;19983;-39
2022/05/16 02:39:33;;;;;;;;;;;;;;;23.19;46.77;99766.81;2080168;28;19920;-39
2022/05/16 02:40:34;;;;;;;;;;;;;;;23.20;46.95;99776.78;2083801;28;19912;-39
2022/05/16 02:41:34;;;;;;;;;;;;;;;23.19;46.84;99769.56;2080431;28;20552;-39
2022/05/16 02:42:35;;;;;;;;;;;;;;;23.20;46.85;99770.41;2086067;28;19999;-39
2022/05/16 02:43:35;;;;;;;;;;;;;;;23.19;46.82;99775.06;2079015;28;19908;-39
2022/05/16 02:44:38;;;;;;;;;;;;;;;23.20;46.78;99778.66;2080384;28;19909;-40
2022/05/16 02:45:38;;;;;;;;;;;;;;;23.20;46.79;99775.91;2084047;28;19922;-39
2022/05/16 02:46:39;;;;;;;;;;;;;;;23.19;46.91;99780.56;2085567;28;20394;-39
2022/05/16 02:47:39;;;;;;;;;;;;;;;23.21;46.90;99785.88;2084471;28;20001;-39
2022/05/16 02:48:39;;;;;;;;;;;;;;;23.19;46.97;99786.06;2083606;28;19981;-39
2022/05/16 02:49:40;;;;;;;;;;;;;;;23.20;47.01;99786.91;2084984;28;19928;-39
2022/05/16 02:50:40;;;;;;;;;;;;;;;23.20;46.81;99781.41;2084659;28;19926;-39
2022/05/16 02:51:40;;;;;;;;;;;;;;;23.19;47.00;99774.22;2080974;28;20927;-39
2022/05/16 02:52:41;;;;;;;;;;;;;;;23.18;46.86;99778.88;2081434;28;20294;-39
2022/05/16 02:53:42;;;;;;;;;;;;;;;23.19;46.98;99771.47;2083973;28;19917;-40
2022/05/16 02:54:42;;;;;;;;;;;;;;;23.20;46.83;99767.66;2084401;28;20827;-39
2022/05/16 02:55:44;;;;;;;;;;;;;;;23.18;46.84;99778.88;2084297;28;20247;-39
2022/05/16 02:56:44;;;;;;;;;;;;;;;23.18;46.89;99781.63;2081462;28;19923;-38
2022/05/16 02:57:44;;;;;;;;;;;;;;;23.19;46.91;99785.22;2081468;28;19916;-38
2022/05/16 02:58:45;;;;;;;;;;;;;;;23.19;46.92;99782.47;2084159;28;19920;-38
2022/05/16 02:59:45;;;;;;;;;;;;;;;23.18;47.06;99792.63;2083436;28;20760;-38
2022/05/16 03:00:45;;;;;;;;;;;;;;;23.19;47.05;99790.72;2079251;28;19920;-38
2022/05/16 03:01:46;;;;;;;;;;;;;;;23.18;46.94;99783.50;2081009;28;19983;-38
2022/05/16 03:02:47;;;;;;;;;;;;;;;23.19;46.97;99788.81;2082300;28;20272;-39
2022/05/16 03:03:47;;;;;;;;;;;;;;;23.18;46.97;99794.50;2083753;28;19920;-38
2022/05/16 03:04:48;;;;;;;;;;;;;;;23.19;47.12;99790.72;2085479;28;19955;-38
2022/05/16 03:05:48;;;;;;;;;;;;;;;23.19;46.96;99790.72;2083147;28;19917;-39
2022/05/16 03:06:48;;;;;;;;;;;;;;;23.18;47.01;99794.50;2085234;28;20688;-38
2022/05/16 03:07:49;;;;;;;;;;;;;;;23.18;46.98;99795.38;2083798;28;19929;-39
2022/05/16 03:08:49;;;;;;;;;;;;;;;23.18;47.13;99800.00;2082353;28;19956;-39
2022/05/16 03:09:50;;;;;;;;;;;;;;;23.18;47.03;99797.25;2086182;28;20011;-38
2022/05/16 03:10:50;;;;;;;;;;;;;;;23.17;47.02;99792.78;2081583;28;19966;-38
2022/05/16 03:11:50;;;;;;;;;;;;;;;23.17;47.07;99801.03;2086476;28;20448;-39
2022/05/16 03:12:51;;;;;;;;;;;;;;;23.16;47.06;99799.34;2081914;28;20286;-38
2022/05/16 03:13:51;;;;;;;;;;;;;;;23.17;47.17;99792.78;2080304;28;20015;-38
2022/05/16 03:14:51;;;;;;;;;;;;;;;23.16;47.21;99796.59;2077974;28;19921;-38
2022/05/16 03:15:52;;;;;;;;;;;;;;;23.16;47.09;99797.44;2081281;28;20310;-38
2022/05/16 03:16:52;;;;;;;;;;;;;;;23.16;47.27;99802.09;2084451;28;20371;-38
2022/05/16 03:17:52;;;;;;;;;;;;;;;23.16;47.30;99802.09;2083976;28;19916;-38
2022/05/16 03:18:53;;;;;;;;;;;;;;;23.14;47.21;99799.50;2080914;28;20383;-38
2022/05/16 03:19:53;;;;;;;;;;;;;;;23.15;47.16;99803.09;2077246;28;20236;-38
2022/05/16 03:20:53;;;;;;;;;;;;;;;23.15;47.32;99814.09;2084177;28;20276;-38
2022/05/16 03:21:54;;;;;;;;;;;;;;;23.15;47.33;99806.72;2084071;28;20378;-38
2022/05/16 03:22:54;;;;;;;;;;;;;;;23.15;47.36;99805.84;2083150;28;19955;-38
2022/05/16 03:23:55;;;;;;;;;;;;;;;23.15;47.23;99798.47;2080588;28;19934;-38
2022/05/16 03:24:55;;;;;;;;;;;;;;;23.14;47.28;99794.00;2084077;28;20256;-38
2022/05/16 03:25:55;;;;;;;;;;;;;;;23.14;47.33;99787.66;2080829;28;19908;-38
2022/05/16 03:26:55;;;;;;;;;;;;;;;23.15;47.35;99792.09;2084377;28;19924;-39
2022/05/16 03:27:56;;;;;;;;;;;;;;;23.15;47.38;99795.75;2077325;28;19917;-38
2022/05/16 03:28:56;;;;;;;;;;;;;;;23.15;47.25;99797.59;2083535;28;19932;-38
2022/05/16 03:29:56;;;;;;;;;;;;;;;23.15;47.42;99805.84;2085034;28;19923;-38
2022/05/16 03:30:57;;;;;;;;;;;;;;;23.15;47.32;99811.34;2078923;28;19923;-39
2022/05/16 03:31:57;;;;;;;;;;;;;;;23.15;47.26;99811.34;2083691;28;19920;-38
2022/05/16 03:32:58;;;;;;;;;;;;;;;23.15;47.40;99800.34;2078164;28;19917;-39
2022/05/16 03:33:58;;;;;;;;;;;;;;;23.14;47.29;99810.50;2084517;28;20576;-38
2022/05/16 03:34:58;;;;;;;;;;;;;;;23.14;47.47;99809.66;2083646;28;19967;-38
2022/05/16 03:35:59;;;;;;;;;;;;;;;23.15;47.38;99814.09;2084129;28;19947;-38
2022/05/16 03:36:59;;;;;;;;;;;;;;;23.15;47.41;99820.47;2083248;28;19962;-39
2022/05/16 03:38:00;;;;;;;;;;;;;;;23.14;47.38;99816.00;2081612;28;19962;-38
2022/05/16 03:41:38;;;;;;;;;;;;;;;23.15;47.39;99805.84;2084108;28;19909;-39
2022/05/16 03:42:38;;;;;;;;;;;;;;;23.14;47.40;99806.91;2078720;28;19920;-38
2022/05/16 03:43:39;;;;;;;;;;;;;;;23.14;47.49;99806.91;2084218;28;19974;-38
2022/05/16 03:44:40;;;;;;;;;;;;;;;23.14;47.48;99805.00;2085499;28;19924;-38
2022/05/16 03:45:41;;;;;;;;;;;;;;;23.13;47.41;99806.06;2081692;28;19959;-38
2022/05/16 03:46:41;;;;;;;;;;;;;;;23.13;47.60;99811.56;2083643;28;19916;-38
2022/05/16 03:47:42;;;;;;;;;;;;;;;23.12;47.59;99804.31;2081517;28;19916;-38
2022/05/16 03:48:42;;;;;;;;;;;;;;;23.11;47.59;99808.97;2082386;28;19916;-38
2022/05/16 03:49:42;;;;;;;;;;;;;;;23.12;47.52;99812.56;2078294;28;19917;-39
2022/05/16 03:50:44;;;;;;;;;;;;;;;23.11;47.57;99808.13;2081675;28;19920;-38
2022/05/16 03:51:44;;;;;;;;;;;;;;;23.11;47.57;99817.22;2079732;28;19920;-38
2022/05/16 03:52:44;;;;;;;;;;;;;;;23.11;47.53;99811.72;2083668;28;19917;-38
2022/05/16 03:53:48;;;;;;;;;;;;;;;23.10;47.74;99821.03;2082845;28;19913;-39
2022/05/16 03:54:48;;;;;;;;;;;;;;;23.11;47.61;99824.63;2081772;28;19916;-39
2022/05/16 03:55:49;;;;;;;;;;;;;;;23.11;47.53;99821.88;2082635;28;19916;-39
2022/05/16 03:56:50;;;;;;;;;;;;;;;23.09;47.62;99824.78;2075429;28;19916;-39
2022/05/16 03:57:50;;;;;;;;;;;;;;;23.10;47.56;99826.53;2082448;28;19977;-39
2022/05/16 03:58:51;;;;;;;;;;;;;;;23.09;47.69;99819.28;2075908;28;19927;-39
2022/05/16 03:59:51;;;;;;;;;;;;;;;23.09;47.57;99815.69;2078422;28;19916;-40
2022/05/16 04:00:52;;;;;;;;;;;;;;;23.09;47.74;99822.03;2084239;28;20185;-39
2022/05/16 04:01:52;;;;;;;;;;;;;;;23.09;47.68;99822.03;2078054;28;19917;-39
2022/05/16 04:02:53;;;;;;;;;;;;;;;23.08;47.77;99812.09;2077318;28;20143;-39
2022/05/16 04:03:53;;;;;;;;;;;;;;;23.09;47.69;99815.69;2081448;28;19924;-39
2022/05/16 04:04:53;;;;;;;;;;;;;;;23.09;47.83;99808.31;2083222;28;19920;-40
2022/05/16 04:05:54;;;;;;;;;;;;;;;23.09;47.63;99813.78;2082975;28;19916;-39
2022/05/16 04:06:55;;;;;;;;;;;;;;;23.09;47.68;99811.03;2082865;28;20256;-40
2022/05/16 04:07:55;;;;;;;;;;;;;;;23.09;47.67;99807.44;2084094;28;20820;-40
2022/05/16 04:08:55;;;;;;;;;;;;;;;23.09;47.80;99808.31;2084001;28;20739;-40
2022/05/16 04:09:56;;;;;;;;;;;;;;;23.09;47.78;99813.78;2081344;28;19917;-39
2022/05/16 04:10:57;;;;;;;;;;;;;;;23.09;47.74;99813.78;2081074;28;20204;-39
2022/05/16 04:11:57;;;;;;;;;;;;;;;23.09;47.77;99802.81;2083661;28;20271;-39
2022/05/16 04:12:57;;;;;;;;;;;;;;;23.10;47.76;99809.16;2082783;28;20225;-39
2022/05/16 04:13:58;;;;;;;;;;;;;;;23.09;47.87;99805.56;2085809;28;19954;-39
2022/05/16 04:14:58;;;;;;;;;;;;;;;23.09;47.74;99810.19;2083287;28;20433;-40
2022/05/16 04:15:59;;;;;;;;;;;;;;;23.08;47.76;99809.34;2086573;28;19997;-39
2022/05/16 04:16:59;;;;;;;;;;;;;;;23.08;47.88;99809.34;2084032;28;19921;-39
2022/05/16 04:17:59;;;;;;;;;;;;;;;23.09;47.90;99812.94;2085214;28;19916;-39
2022/05/16 04:19:00;;;;;;;;;;;;;;;23.09;47.94;99812.94;2083754;28;19926;-39
2022/05/16 04:20:00;;;;;;;;;;;;;;;23.09;47.89;99811.03;2084895;28;19991;-39
2022/05/16 04:21:00;;;;;;;;;;;;;;;23.09;47.88;99811.03;2086176;28;19913;-39
2022/05/16 04:22:01;;;;;;;;;;;;;;;23.09;47.82;99813.78;2085201;28;19942;-39
2022/05/16 04:23:01;;;;;;;;;;;;;;;23.08;47.82;99801.09;2084717;28;20536;-39
2022/05/16 04:24:02;;;;;;;;;;;;;;;23.08;47.86;99809.34;2080786;28;20262;-40
2022/05/16 04:25:02;;;;;;;;;;;;;;;23.08;47.85;99801.09;2085478;28;19981;-39
2022/05/16 04:26:03;;;;;;;;;;;;;;;23.08;47.88;99803.00;2082528;28;19912;-39
2022/05/16 04:27:03;;;;;;;;;;;;;;;23.07;47.94;99804.88;2084458;28;20293;-39
2022/05/16 04:28:04;;;;;;;;;;;;;;;23.07;47.82;99809.53;2085394;28;19909;-39
2022/05/16 04:29:05;;;;;;;;;;;;;;;23.07;47.82;99806.78;2082008;28;20584;-39
2022/05/16 04:30:05;;;;;;;;;;;;;;;23.07;48.05;99810.38;2085478;28;19916;-39
2022/05/16 04:31:06;;;;;;;;;;;;;;;23.06;47.96;99814.16;2082552;28;19923;-39
2022/05/16 04:32:06;;;;;;;;;;;;;;;23.05;47.95;99812.47;2082450;28;19913;-39
2022/05/16 04:33:07;;;;;;;;;;;;;;;23.06;48.04;99819.66;2086104;28;20247;-39
2022/05/16 04:34:09;;;;;;;;;;;;;;;23.06;48.11;99821.56;2084223;28;19923;-39
2022/05/16 04:35:10;;;;;;;;;;;;;;;23.06;48.13;99825.16;2084785;28;19916;-39
2022/05/16 04:36:10;;;;;;;;;;;;;;;23.05;47.97;99817.09;2085162;28;19966;-39
2022/05/16 04:37:10;;;;;;;;;;;;;;;23.05;48.13;99820.72;2082401;28;19924;-39
2022/05/16 04:38:11;;;;;;;;;;;;;;;23.05;48.13;99822.59;2088403;28;19971;-38
2022/05/16 04:39:11;;;;;;;;;;;;;;;23.05;48.04;99820.72;2083074;28;19926;-39
2022/05/16 04:40:12;;;;;;;;;;;;;;;23.05;48.18;99817.97;2081978;28;19932;-39
2022/05/16 04:42:40;;;;;;;;;;;;;;;23.05;48.11;99819.84;2080526;28;20222;-39
2022/05/16 04:43:41;;;;;;;;;;;;;;;23.05;48.21;99822.59;2084615;28;19960;-39
2022/05/16 04:44:41;;;;;;;;;;;;;;;23.06;48.18;99829.81;2086264;28;19931;-39
2022/05/16 04:45:41;;;;;;;;;;;;;;;23.06;48.18;99830.66;2083607;28;19994;-39
2022/05/16 04:46:42;;;;;;;;;;;;;;;23.05;48.23;99828.97;2085520;28;19916;-38
2022/05/16 04:47:43;;;;;;;;;;;;;;;23.05;48.17;99828.97;2084099;28;19920;-39
2022/05/16 04:48:44;;;;;;;;;;;;;;;23.05;48.11;99823.47;2083483;28;19909;-39
2022/05/16 04:49:44;;;;;;;;;;;;;;;23.05;48.26;99834.47;2080092;28;20150;-39
2022/05/16 04:50:44;;;;;;;;;;;;;;;23.06;48.27;99829.81;2081484;28;20380;-39
2022/05/16 04:51:45;;;;;;;;;;;;;;;23.06;48.16;99832.56;2081473;28;19925;-39
2022/05/16 04:52:46;;;;;;;;;;;;;;;23.05;48.10;99834.47;2084274;28;20206;-39
2022/05/16 04:53:46;;;;;;;;;;;;;;;23.06;48.22;99832.56;2083946;28;19920;-39
2022/05/16 04:54:48;;;;;;;;;;;;;;;23.06;48.22;99838.91;2084642;28;20323;-40
2022/05/16 04:55:48;;;;;;;;;;;;;;;23.06;48.21;99841.66;2079110;28;19920;-39
2022/05/16 04:56:51;;;;;;;;;;;;;;;23.05;48.31;99839.97;2081573;28;20003;-39
2022/05/16 04:57:51;;;;;;;;;;;;;;;23.05;48.31;99834.47;2084559;28;19916;-39
2022/05/16 04:58:51;;;;;;;;;;;;;;;23.05;48.35;99830.84;2078309;28;19924;-39
2022/05/16 04:59:52;;;;;;;;;;;;;;;23.06;48.23;99835.31;2082688;28;19982;-39
2022/05/16 05:00:52;;;;;;;;;;;;;;;23.05;48.25;99839.97;2083324;28;19921;-39
2022/05/16 05:01:53;;;;;;;;;;;;;;;23.04;48.28;99840.97;2081069;28;20367;-39
2022/05/16 05:02:53;;;;;;;;;;;;;;;23.04;48.42;99843.72;2080952;28;19908;-39
2022/05/16 05:03:53;;;;;;;;;;;;;;;23.04;48.27;99846.47;2081566;28;19917;-39
2022/05/16 05:04:54;;;;;;;;;;;;;;;23.04;48.35;99848.38;2086064;28;19978;-39
2022/05/16 05:05:54;;;;;;;;;;;;;;;23.03;48.28;99843.94;2084385;28;19943;-39
2022/05/16 05:06:54;;;;;;;;;;;;;;;23.03;48.46;99842.03;2085103;28;19931;-39
2022/05/16 05:07:55;;;;;;;;;;;;;;;23.02;48.36;99848.56;2081346;28;19956;-39
2022/05/16 05:08:55;;;;;;;;;;;;;;;23.03;48.36;99850.28;2084430;28;19916;-40
2022/05/16 05:15:12;;;;;;;;;;;;;;;23.02;48.56;99856.78;2081985;28;20141;-39
2022/05/16 05:16:15;;;;;;;;;;;;;;;23.02;48.44;99862.28;2086476;28;20034;-39
2022/05/16 05:17:15;;;;;;;;;;;;;;;23.01;48.45;99860.59;2082556;28;19945;-39
2022/05/16 05:18:15;;;;;;;;;;;;;;;23.02;48.42;99864.19;2084543;28;19912;-39
2022/05/16 05:19:16;;;;;;;;;;;;;;;23.02;48.59;99865.03;2083760;28;19909;-40
2022/05/16 05:20:17;;;;;;;;;;;;;;;23.03;48.63;99866.78;2084178;28;19916;-39
2022/05/16 05:21:18;;;;;;;;;;;;;;;23.03;48.36;99866.78;2082404;28;19916;-39
2022/05/16 05:22:19;;;;;;;;;;;;;;;23.02;48.56;99862.28;2084198;28;19917;-39
2022/05/16 05:23:19;;;;;;;;;;;;;;;23.03;48.50;99858.53;2085610;28;19912;-39
2022/05/16 05:24:19;;;;;;;;;;;;;;;23.03;48.54;99857.69;2081560;28;19917;-40
2022/05/16 05:25:20;;;;;;;;;;;;;;;23.03;48.50;99863.19;2083423;28;20315;-39
2022/05/16 05:26:20;;;;;;;;;;;;;;;23.02;48.56;99865.03;2081808;28;19950;-39
2022/05/16 05:27:21;;;;;;;;;;;;;;;23.03;48.64;99868.69;2084911;28;19969;-39
2022/05/16 05:28:21;;;;;;;;;;;;;;;23.02;48.59;99867.78;2085573;28;19924;-39
2022/05/16 05:29:22;;;;;;;;;;;;;;;23.02;48.57;99867.78;2084719;28;19920;-39
2022/05/16 05:30:24;;;;;;;;;;;;;;;23.02;48.66;99873.28;2084424;28;19920;-39
2022/05/16 05:31:25;;;;;;;;;;;;;;;23.02;48.51;99875.19;2084112;28;19916;-39
2022/05/16 05:32:25;;;;;;;;;;;;;;;23.01;48.58;99882.59;2083283;28;19967;-40
2022/05/16 05:33:26;;;;;;;;;;;;;;;23.01;48.55;99882.59;2083606;28;19922;-39
2022/05/16 05:34:26;;;;;;;;;;;;;;;23.01;48.58;99890.84;2082562;28;19921;-39
2022/05/16 05:35:27;;;;;;;;;;;;;;;23.01;48.67;99890.84;2083398;28;20374;-39
2022/05/16 05:36:29;;;;;;;;;;;;;;;23.00;48.57;99900.09;2081473;28;19989;-40